Concerto — JJ3855 — position and weather

sailwx.info

Track history (hours):
 
Tides and Currents Weather Stations Pressure Air Temp Water Temp Dewpoint Dewpoint Depression Visibility Wind Speed Wind Dir Waves Ship Positions

Concerto

Last reported at 2014-Nov-01 01:33 UTC. Time now 2014-Nov-01 01:53 UTC.
Position N 34°41' E 135°11'.

Length 62 m; draft 3 m.

Type: Passenger vessel. MMSI: 431000448.

Date/timePositionNaut miles runAvg speedWind from/ knotsBaromVisibWave heightAir tempDewpointWater temp
2014-Nov-01 01:33N 34°41' E 135°11'3 0.2
2014-Oct-31 11:33N 34°38' E 135°10'2 2.1
2014-Oct-31 10:33N 34°40' E 135°11'1 0.8
2014-Oct-31 09:33N 34°39' E 135°11'1 0.6
2014-Oct-31 08:33N 34°39' E 135°11'2 2.1
2014-Oct-31 07:33N 34°41' E 135°11'4 3.5
2014-Oct-31 06:33N 34°38' E 135°09'4 3.3
2014-Oct-31 05:30N 34°41' E 135°11'1 0.7
2014-Oct-31 04:33N 34°40' E 135°12'3 3.1
2014-Oct-31 03:33N 34°38' E 135°09'3 3.4
2014-Oct-31 02:32N 34°41' E 135°11'3 0.2
2014-Oct-30 11:34N 34°38' E 135°10'2 2.3
2014-Oct-30 10:34N 34°40' E 135°11'1 0.7
2014-Oct-30 09:33N 34°39' E 135°11'1 0.8
2014-Oct-30 08:33N 34°39' E 135°11'2 2.2
2014-Oct-30 07:33N 34°41' E 135°11'3 3.3
2014-Oct-30 06:33N 34°38' E 135°09'3 3.1
2014-Oct-30 05:29N 34°41' E 135°11'0 0.5
2014-Oct-30 04:34N 34°40' E 135°11'3 2.7
2014-Oct-30 03:33N 34°38' E 135°10'3 3.0
2014-Oct-30 02:34N 34°41' E 135°11'3 0.2
2014-Oct-29 11:33N 34°38' E 135°11'2 1.9
2014-Oct-29 10:32N 34°40' E 135°11'0 0.3
2014-Oct-29 09:33N 34°40' E 135°11'1 1.3
2014-Oct-29 08:33N 34°39' E 135°10'2 1.9
2014-Oct-29 07:23N 34°41' E 135°11'3 4.1
2014-Oct-29 06:33N 34°38' E 135°09'3 3.1
2014-Oct-29 05:28N 34°41' E 135°11'0 0.4
2014-Oct-29 04:33N 34°40' E 135°11'3 3.3
2014-Oct-29 03:33N 34°38' E 135°09'3 3.5
2014-Oct-29 02:33N 34°41' E 135°11'3 0.2
2014-Oct-28 11:33N 34°38' E 135°11'2 1.8
2014-Oct-28 10:33N 34°40' E 135°11'0 0.3
2014-Oct-28 09:33N 34°40' E 135°11'2 1.7
2014-Oct-28 08:33N 34°38' E 135°11'2 2.2
2014-Oct-28 07:28N 34°41' E 135°11'3 3.7
2014-Oct-28 06:33N 34°38' E 135°09'3 3.2
2014-Oct-28 05:30N 34°41' E 135°11'1 0.7
2014-Oct-28 04:33N 34°40' E 135°12'3 3.4
2014-Oct-28 03:33N 34°38' E 135°09'2 0.1
2014-Oct-27 11:33N 34°38' E 135°11'2 1.6
2014-Oct-27 10:33N 34°40' E 135°11'0 0.3
2014-Oct-27 09:34N 34°39' E 135°11'1 1.1
2014-Oct-27 08:33N 34°38' E 135°11'2 2.1
2014-Oct-27 07:24N 34°41' E 135°11'3 3.5
2014-Oct-27 06:33N 34°38' E 135°09'3 2.7
2014-Oct-27 05:28N 34°41' E 135°11'0 0.4
2014-Oct-27 04:33N 34°41' E 135°11'3 3.2
2014-Oct-27 03:33N 34°38' E 135°09'3 3.3
2014-Oct-27 02:33N 34°41' E 135°11'3 0.2
2014-Oct-26 11:34N 34°38' E 135°10'2 2.4
2014-Oct-26 10:34N 34°40' E 135°11'1 0.9
2014-Oct-26 09:34N 34°41' E 135°11'4 4.1
2014-Oct-26 08:33N 34°37' E 135°08'1 1.2
2014-Oct-26 07:33N 34°36' E 135°08'6 5.7
2014-Oct-26 06:33N 34°37' E 135°15'4 4.5
2014-Oct-26 05:33N 34°41' E 135°11'0 0.4
2014-Oct-26 04:33N 34°40' E 135°11'3 3.3
2014-Oct-26 03:33N 34°38' E 135°09'3 3.4
2014-Oct-26 02:33N 34°41' E 135°11'3 0.2
2014-Oct-25 11:33N 34°38' E 135°10'2 2.4
2014-Oct-25 10:33N 34°40' E 135°11'1 0.5
2014-Oct-25 09:33N 34°40' E 135°11'0 0.1
2014-Oct-25 08:33N 34°40' E 135°11'1 1.1
2014-Oct-25 07:30N 34°41' E 135°11'3 3.4
2014-Oct-25 06:33N 34°38' E 135°09'3 3.2
2014-Oct-25 05:33N 34°41' E 135°11'0 0.2
2014-Oct-25 04:33N 34°41' E 135°11'3 3.3
2014-Oct-25 03:33N 34°38' E 135°09'3 3.5
2014-Oct-25 02:33N 34°41' E 135°11'3 0.2
2014-Oct-24 11:33N 34°38' E 135°11'2 2.1
2014-Oct-24 10:33N 34°40' E 135°11'0 0.5
2014-Oct-24 09:33N 34°39' E 135°11'1 0.8
2014-Oct-24 08:33N 34°39' E 135°11'2 1.8
2014-Oct-24 07:23N 34°41' E 135°11'3 4.2
2014-Oct-24 06:33N 34°38' E 135°09'3 3.4
2014-Oct-24 05:32N 34°41' E 135°11'0 0.2
2014-Oct-24 04:33N 34°41' E 135°11'3 3.3
2014-Oct-24 03:33N 34°38' E 135°09'3 3.4
2014-Oct-24 02:33N 34°41' E 135°11'3 0.2
2014-Oct-23 11:33N 34°38' E 135°10'2 2.2
2014-Oct-23 10:33N 34°40' E 135°11'0 0.1
2014-Oct-23 09:33N 34°40' E 135°11'1 1.5
2014-Oct-23 08:33N 34°39' E 135°11'2 2.3
2014-Oct-23 07:33N 34°41' E 135°11'3 3.3
2014-Oct-23 06:33N 34°38' E 135°09'3 2.8
2014-Oct-23 05:24N 34°41' E 135°11'0 0.6
2014-Oct-23 04:33N 34°40' E 135°11'3 3.3
2014-Oct-23 03:33N 34°38' E 135°09'2 0.1
2014-Oct-22 11:33N 34°38' E 135°11'2 1.7
2014-Oct-22 10:33N 34°40' E 135°11'1 0.9
2014-Oct-22 09:33N 34°39' E 135°11'1 0.6
2014-Oct-22 08:34N 34°39' E 135°11'2 2.0
2014-Oct-22 07:25N 34°41' E 135°11'3 3.7
2014-Oct-22 06:33N 34°38' E 135°09'3 2.6
2014-Oct-22 05:22N 34°41' E 135°11'0 0.6
2014-Oct-22 04:33N 34°40' E 135°11'3 3.2
2014-Oct-22 03:33N 34°38' E 135°09'3 3.3
2014-Oct-22 02:33N 34°41' E 135°11'  
Track history (hours):
 
Tides and Currents Weather Stations Pressure Air Temp Water Temp Dewpoint Dewpoint Depression Visibility Wind Speed Wind Dir Waves Ship Positions

Concerto

Last reported at 2014-Nov-01 01:33 UTC. Time now 2014-Nov-01 01:53 UTC.
Position N 34°41' E 135°11'.

Length 62 m; draft 3 m.

Type: Passenger vessel. MMSI: 431000448.

Date/timePositionNaut miles runAvg speedWind from/ knotsBaromVisibWave heightAir tempDewpointWater temp
2014-Nov-01 01:33N 34°41' E 135°11'3 0.2
2014-Oct-31 11:33N 34°38' E 135°10'2 2.1
2014-Oct-31 10:33N 34°40' E 135°11'1 0.8
2014-Oct-31 09:33N 34°39' E 135°11'1 0.6
2014-Oct-31 08:33N 34°39' E 135°11'2 2.1
2014-Oct-31 07:33N 34°41' E 135°11'4 3.5
2014-Oct-31 06:33N 34°38' E 135°09'4 3.3
2014-Oct-31 05:30N 34°41' E 135°11'1 0.7
2014-Oct-31 04:33N 34°40' E 135°12'3 3.1
2014-Oct-31 03:33N 34°38' E 135°09'3 3.4
2014-Oct-31 02:32N 34°41' E 135°11'3 0.2
2014-Oct-30 11:34N 34°38' E 135°10'2 2.3
2014-Oct-30 10:34N 34°40' E 135°11'1 0.7
2014-Oct-30 09:33N 34°39' E 135°11'1 0.8
2014-Oct-30 08:33N 34°39' E 135°11'2 2.2
2014-Oct-30 07:33N 34°41' E 135°11'3 3.3
2014-Oct-30 06:33N 34°38' E 135°09'3 3.1
2014-Oct-30 05:29N 34°41' E 135°11'0 0.5
2014-Oct-30 04:34N 34°40' E 135°11'3 2.7
2014-Oct-30 03:33N 34°38' E 135°10'3 3.0
2014-Oct-30 02:34N 34°41' E 135°11'3 0.2
2014-Oct-29 11:33N 34°38' E 135°11'2 1.9
2014-Oct-29 10:32N 34°40' E 135°11'0 0.3
2014-Oct-29 09:33N 34°40' E 135°11'1 1.3
2014-Oct-29 08:33N 34°39' E 135°10'2 1.9
2014-Oct-29 07:23N 34°41' E 135°11'3 4.1
2014-Oct-29 06:33N 34°38' E 135°09'3 3.1
2014-Oct-29 05:28N 34°41' E 135°11'0 0.4
2014-Oct-29 04:33N 34°40' E 135°11'3 3.3
2014-Oct-29 03:33N 34°38' E 135°09'3 3.5
2014-Oct-29 02:33N 34°41' E 135°11'3 0.2
2014-Oct-28 11:33N 34°38' E 135°11'2 1.8
2014-Oct-28 10:33N 34°40' E 135°11'0 0.3
2014-Oct-28 09:33N 34°40' E 135°11'2 1.7
2014-Oct-28 08:33N 34°38' E 135°11'2 2.2
2014-Oct-28 07:28N 34°41' E 135°11'3 3.7
2014-Oct-28 06:33N 34°38' E 135°09'3 3.2
2014-Oct-28 05:30N 34°41' E 135°11'1 0.7
2014-Oct-28 04:33N 34°40' E 135°12'3 3.4
2014-Oct-28 03:33N 34°38' E 135°09'2 0.1
2014-Oct-27 11:33N 34°38' E 135°11'2 1.6
2014-Oct-27 10:33N 34°40' E 135°11'0 0.3
2014-Oct-27 09:34N 34°39' E 135°11'1 1.1
2014-Oct-27 08:33N 34°38' E 135°11'2 2.1
2014-Oct-27 07:24N 34°41' E 135°11'3 3.5
2014-Oct-27 06:33N 34°38' E 135°09'3 2.7
2014-Oct-27 05:28N 34°41' E 135°11'0 0.4
2014-Oct-27 04:33N 34°41' E 135°11'3 3.2
2014-Oct-27 03:33N 34°38' E 135°09'3 3.3
2014-Oct-27 02:33N 34°41' E 135°11'3 0.2
2014-Oct-26 11:34N 34°38' E 135°10'2 2.4
2014-Oct-26 10:34N 34°40' E 135°11'1 0.9
2014-Oct-26 09:34N 34°41' E 135°11'4 4.1
2014-Oct-26 08:33N 34°37' E 135°08'1 1.2
2014-Oct-26 07:33N 34°36' E 135°08'6 5.7
2014-Oct-26 06:33N 34°37' E 135°15'4 4.5
2014-Oct-26 05:33N 34°41' E 135°11'0 0.4
2014-Oct-26 04:33N 34°40' E 135°11'3 3.3
2014-Oct-26 03:33N 34°38' E 135°09'3 3.4
2014-Oct-26 02:33N 34°41' E 135°11'3 0.2
2014-Oct-25 11:33N 34°38' E 135°10'2 2.4
2014-Oct-25 10:33N 34°40' E 135°11'1 0.5
2014-Oct-25 09:33N 34°40' E 135°11'0 0.1
2014-Oct-25 08:33N 34°40' E 135°11'1 1.1
2014-Oct-25 07:30N 34°41' E 135°11'3 3.4
2014-Oct-25 06:33N 34°38' E 135°09'3 3.2
2014-Oct-25 05:33N 34°41' E 135°11'0 0.2
2014-Oct-25 04:33N 34°41' E 135°11'3 3.3
2014-Oct-25 03:33N 34°38' E 135°09'3 3.5
2014-Oct-25 02:33N 34°41' E 135°11'3 0.2
2014-Oct-24 11:33N 34°38' E 135°11'2 2.1
2014-Oct-24 10:33N 34°40' E 135°11'0 0.5
2014-Oct-24 09:33N 34°39' E 135°11'1 0.8
2014-Oct-24 08:33N 34°39' E 135°11'2 1.8
2014-Oct-24 07:23N 34°41' E 135°11'3 4.2
2014-Oct-24 06:33N 34°38' E 135°09'3 3.4
2014-Oct-24 05:32N 34°41' E 135°11'0 0.2
2014-Oct-24 04:33N 34°41' E 135°11'3 3.3
2014-Oct-24 03:33N 34°38' E 135°09'3 3.4
2014-Oct-24 02:33N 34°41' E 135°11'3 0.2
2014-Oct-23 11:33N 34°38' E 135°10'2 2.2
2014-Oct-23 10:33N 34°40' E 135°11'0 0.1
2014-Oct-23 09:33N 34°40' E 135°11'1 1.5
2014-Oct-23 08:33N 34°39' E 135°11'2 2.3
2014-Oct-23 07:33N 34°41' E 135°11'3 3.3
2014-Oct-23 06:33N 34°38' E 135°09'3 2.8
2014-Oct-23 05:24N 34°41' E 135°11'0 0.6
2014-Oct-23 04:33N 34°40' E 135°11'3 3.3
2014-Oct-23 03:33N 34°38' E 135°09'2 0.1
2014-Oct-22 11:33N 34°38' E 135°11'2 1.7
2014-Oct-22 10:33N 34°40' E 135°11'1 0.9
2014-Oct-22 09:33N 34°39' E 135°11'1 0.6
2014-Oct-22 08:34N 34°39' E 135°11'2 2.0
2014-Oct-22 07:25N 34°41' E 135°11'3 3.7
2014-Oct-22 06:33N 34°38' E 135°09'3 2.6
2014-Oct-22 05:22N 34°41' E 135°11'0 0.6
2014-Oct-22 04:33N 34°40' E 135°11'3 3.2
2014-Oct-22 03:33N 34°38' E 135°09'3 3.3
2014-Oct-22 02:33N 34°41' E 135°11'  

Dump ship's entire track history